Forside
METAR-TAF:

METAR-TAF

Lufthavne :

Athen Internationale Lufthavn

Athen, Grækenland

Breddekreds: 37-56N, længdekreds: 023-56E, højde: 94 m

Aktuelle vejr

Denne rapport blev lavet for 18 minutter siden, kl. 17:50 UTC
Vind 5 kt fra nordøst
Temperatur 25°C
Fugtighed 47%
Tryk 1011 hPa
Sigt 10 km eller mere
ingen skyer under 1500m og ingen cumulonimbus

METAR: LGAV 141750Z 04005KT CAVOK 25/13 Q1011 NOSIG

Tid: 21:08 (18:08 UTC)

Vejrudsigter

Denne rapport blev lavet for 1 time og 8 minutter siden, kl. 17:00 UTC
Foreløbig gælder fra 14 på 18 UTC til 15 på 18 UTC
Vind 15 kt fra nordnordøst
Sigt 10 km eller mere
Nogle få skyer i en højde af 2500 ft

TAF: LGAV 141700Z 1418/1518 02015KT 9999 FEW025

Vejrobservationer og prognoser fra mere end 4000 lufthavne (METAR og TAF).

De gule og røde prikker repræsenterer de meteorologiske stationer.

Flyt musen over at se navnet på stationen.

Så klik over at se vejr observationer og prognoser.

At skifte det kort: Klik på de grønne knapper med et sort kors for at zoome ind; på den grønne knap med en bindestreg for at zoome ud; eller på de grønne pile for tilstødende kort.


METAR-TAF: